Time;durP1;ratioP1;P1;durP2;ratioP2;P2;SDS_P1;SDS_P2;PMS_P1;PMS_P2;Temp;Humidity;BMP_temperature;BMP_pressure;BME280_temperature;BME280_humidity;BME280_pressure;Samples;Min_cycle;Max_cycle;Signal;HPM_P1;HPM_P2
2022/01/11 00:04:48;;;;;;;285.82;97.60;;;;;;;-5.13;94.63;102477.80;5004451;58;1143182;-76
2022/01/11 00:09:56;;;;;;;301.13;96.47;;;;;;;-5.04;94.53;102486.14;5055110;57;1143079;-73
2022/01/11 00:15:02;;;;;;;268.17;86.30;;;;;;;-5.04;94.53;102486.14;5169960;57;1143364;-69
2022/01/11 00:20:12;;;;;;;268.10;87.30;;;;;;;-5.14;94.19;102500.56;5169708;57;1143235;-76
2022/01/11 00:25:17;;;;;;;216.10;73.70;;;;;;;-5.15;94.89;102500.11;5170010;57;1143120;-78
2022/01/11 00:30:24;;;;;;;185.50;63.03;;;;;;;-5.01;95.92;102506.80;5170033;57;1143407;-73
2022/01/11 00:35:44;;;;;;;193.70;65.17;;;;;;;-4.94;95.35;102511.25;5169969;57;1143211;-69
2022/01/11 00:40:50;;;;;;;271.57;86.27;;;;;;;-4.93;95.19;102511.70;5159437;57;1143227;-76
2022/01/11 00:45:59;;;;;;;243.78;82.65;;;;;;;-4.93;95.19;102511.70;5157765;57;1143232;-78
2022/01/11 00:51:05;;;;;;;218.57;71.47;;;;;;;-4.94;94.69;102516.83;5133116;57;1143271;-73
2022/01/11 00:56:11;;;;;;;229.87;80.27;;;;;;;-4.94;94.60;102519.41;5122472;57;1143189;-74
2022/01/11 01:01:17;;;;;;;241.00;79.60;;;;;;;-5.01;94.06;102517.13;5123644;57;1143383;-77
2022/01/11 01:06:22;;;;;;;267.63;89.97;;;;;;;-5.13;93.27;102519.48;5122475;57;1143211;-71
2022/01/11 01:11:28;;;;;;;263.93;81.93;;;;;;;-5.30;92.51;102524.33;5039020;57;1143408;-71
2022/01/11 01:16:36;;;;;;;261.37;82.93;;;;;;;-5.29;93.72;102529.93;4979876;58;1143137;-75
2022/01/11 01:21:59;;;;;;;300.98;97.82;;;;;;;-5.38;92.50;102525.90;4980154;58;1143158;-76
2022/01/11 01:27:05;;;;;;;282.67;88.10;;;;;;;-5.50;92.45;102529.53;4981041;58;1143155;-76
2022/01/11 01:32:12;;;;;;;243.13;81.57;;;;;;;-5.54;93.09;102531.58;4981959;58;1141149;-76
2022/01/11 01:37:18;;;;;;;255.60;86.30;;;;;;;-5.46;93.84;102530.89;4982198;58;1141340;-79
2022/01/11 01:42:30;;;;;;;261.23;89.80;;;;;;;-5.36;94.13;102529.38;4982095;58;1141072;-69
2022/01/11 01:47:35;;;;;;;254.70;83.13;;;;;;;-5.39;93.81;102520.29;4982252;58;1141027;-79
2022/01/11 01:52:41;;;;;;;261.40;84.40;;;;;;;-5.43;93.20;102530.08;4982138;58;1141041;-70
2022/01/11 01:57:47;;;;;;;244.60;82.33;;;;;;;-5.42;93.60;102534.41;4981971;58;1140995;-73
2022/01/11 02:02:56;;;;;;;257.60;87.00;;;;;;;-5.36;93.73;102537.11;4981905;58;1141360;-77
2022/01/11 02:08:03;;;;;;;265.62;89.07;;;;;;;-5.49;92.15;102540.26;4980923;59;1141124;-74
2022/01/11 02:13:09;;;;;;;252.73;84.90;;;;;;;-5.71;91.45;102550.14;4906865;59;1141354;-76
2022/01/11 02:18:24;;;;;;;276.93;87.83;;;;;;;-5.97;90.96;102559.05;4910171;59;1141016;-73
2022/01/11 02:23:32;;;;;;;273.10;91.07;;;;;;;-6.20;91.21;102557.62;4913619;58;1141139;-73
2022/01/11 02:28:39;;;;;;;299.63;95.53;;;;;;;-6.14;92.25;102559.95;4912188;59;1141068;-73
2022/01/11 02:33:50;;;;;;;259.80;90.33;;;;;;;-6.23;91.85;102560.12;4912430;59;1141103;-77
2022/01/11 02:39:08;;;;;;;272.27;87.47;;;;;;;-6.28;91.78;102564.31;4912128;59;1143376;-74
2022/01/11 02:44:15;;;;;;;288.57;92.15;;;;;;;-6.36;92.29;102569.27;4912299;59;1143199;-72
2022/01/11 02:49:21;;;;;;;302.37;96.17;;;;;;;-6.18;93.67;102572.70;4912228;59;1143448;-74
2022/01/11 02:54:29;;;;;;;277.50;92.77;;;;;;;-6.00;93.87;102573.55;4914741;58;1143390;-75
2022/01/11 02:59:38;;;;;;;275.80;88.97;;;;;;;-6.09;92.46;102574.19;4919302;58;1143198;-74
2022/01/11 03:04:44;;;;;;;252.00;83.55;;;;;;;-5.98;93.54;102570.18;4924818;59;1143169;-73
2022/01/11 03:10:02;;;;;;;272.00;85.77;;;;;;;-5.86;93.70;102569.55;4913783;58;1143107;-74
2022/01/11 03:15:04;;;;;;;250.10;83.10;;;;;;;-5.81;93.32;102569.24;4959100;58;1143198;-74
2022/01/11 03:20:10;;;;;;;227.73;73.73;;;;;;;-5.91;92.00;102569.47;4959737;58;1143127;-75
2022/01/11 03:25:17;;;;;;;240.77;74.80;;;;;;;-5.93;92.29;102572.84;4968977;58;1143284;-79
2022/01/11 03:30:24;;;;;;;219.67;73.47;;;;;;;-5.92;92.64;102577.16;4969003;58;1143241;-74
2022/01/11 03:35:31;;;;;;;222.23;73.87;;;;;;;-5.88;92.79;102576.41;4969087;58;1143378;-70
2022/01/11 03:40:38;;;;;;;224.93;69.50;;;;;;;-5.82;92.73;102579.97;4968862;58;1143157;-73
2022/01/11 03:45:44;;;;;;;188.90;63.53;;;;;;;-5.93;91.45;102590.88;4968969;58;1143374;-78
2022/01/11 03:50:55;;;;;;;196.07;66.03;;;;;;;-6.01;91.54;102588.55;4968935;58;1143175;-70
2022/01/11 03:56:21;;;;;;;182.30;63.93;;;;;;;-6.12;91.33;102590.47;4996508;57;1143156;-76
2022/01/11 04:01:22;;;;;;;204.83;69.37;;;;;;;-6.16;91.48;102601.52;4989956;59;1143644;-73
2022/01/11 04:06:28;;;;;;;203.43;65.87;;;;;;;-6.27;91.34;102604.27;4982141;59;1143306;-76
2022/01/11 04:11:35;;;;;;;244.60;83.97;;;;;;;-6.27;91.32;102593.97;4976275;59;1143154;-69
2022/01/11 04:16:42;;;;;;;205.03;70.93;;;;;;;-6.30;91.71;102593.02;4974385;59;1143283;-73
2022/01/11 04:21:50;;;;;;;194.53;65.73;;;;;;;-6.31;91.45;102584.83;4974860;59;1143145;-72
2022/01/11 04:26:57;;;;;;;194.57;63.17;;;;;;;-6.21;92.39;102584.21;4986419;59;1143183;-73
2022/01/11 04:32:04;;;;;;;169.10;59.23;;;;;;;-6.17;92.49;102593.34;4986554;59;1143471;-73
2022/01/11 04:37:10;;;;;;;165.93;58.50;;;;;;;-6.08;92.78;102578.09;4986419;59;1142492;-76
2022/01/11 04:42:16;;;;;;;142.00;51.67;;;;;;;-6.15;91.57;102588.23;4986432;59;1143185;-74
2022/01/11 04:47:22;;;;;;;162.57;56.77;;;;;;;-6.15;91.57;102588.23;4986243;59;1143141;-74
2022/01/11 04:52:28;;;;;;;162.07;56.87;;;;;;;-6.15;92.01;102583.08;4986413;59;1143169;-72
2022/01/11 04:57:34;;;;;;;205.67;64.93;;;;;;;-6.09;92.36;102585.36;4995174;59;1143423;-74
2022/01/11 05:02:40;;;;;;;183.70;58.23;;;;;;;-6.04;92.33;102590.22;5005213;59;1143455;-76
2022/01/11 05:07:47;;;;;;;229.13;74.00;;;;;;;-6.20;90.30;102606.55;5004889;58;1143283;-72
2022/01/11 05:12:53;;;;;;;247.90;83.50;;;;;;;-6.56;89.80;102604.79;5018307;58;1143224;-73
2022/01/11 05:18:00;;;;;;;226.03;78.80;;;;;;;-6.55;91.31;102597.53;5020696;58;1141149;-72
2022/01/11 05:23:08;;;;;;;223.97;70.80;;;;;;;-6.60;90.44;102604.28;4932795;59;1141295;-69
2022/01/11 05:28:14;;;;;;;250.67;82.10;;;;;;;-6.97;88.79;102603.70;4959836;59;1141345;-75
2022/01/11 05:33:22;;;;;;;258.00;81.93;;;;;;;-7.26;90.19;102616.16;4949511;59;1141094;-76
2022/01/11 05:38:29;;;;;;;237.90;81.03;;;;;;;-7.10;91.85;102626.93;4962323;59;1141131;-76
2022/01/11 05:43:36;;;;;;;215.90;74.00;;;;;;;-7.00;91.76;102633.19;4952733;59;1141221;-73
2022/01/11 05:48:44;;;;;;;223.23;73.77;;;;;;;-6.95;91.50;102623.91;4947285;59;1141419;-76
2022/01/11 05:53:51;;;;;;;221.37;76.77;;;;;;;-6.84;92.12;102634.07;4960291;59;1141074;-74
2022/01/11 05:58:57;;;;;;;209.60;71.77;;;;;;;-6.68;92.46;102623.77;4945958;59;1141074;-76
2022/01/11 06:04:03;;;;;;;209.87;72.60;;;;;;;-6.65;92.04;102622.99;4964710;59;1141247;-70
2022/01/11 06:09:10;;;;;;;225.70;74.10;;;;;;;-6.54;92.14;102631.44;4972125;59;1141050;-72
2022/01/11 06:14:16;;;;;;;329.37;111.10;;;;;;;-6.50;92.04;102637.55;4972692;59;1141092;-76
2022/01/11 06:19:26;;;;;;;308.27;100.23;;;;;;;-6.45;92.37;102634.69;4972603;59;1143730;-76
2022/01/11 06:24:39;;;;;;;280.57;92.20;;;;;;;-6.41;91.91;102647.66;4971484;59;1141372;-73
2022/01/11 06:29:45;;;;;;;260.80;87.33;;;;;;;-6.74;89.53;102654.51;4972618;59;1139057;-75
2022/01/11 06:34:53;;;;;;;290.30;89.75;;;;;;;-7.08;88.95;102665.95;4991428;59;1143337;-72
2022/01/11 06:40:01;;;;;;;557.53;193.80;;;;;;;-7.36;89.15;102683.56;4936025;59;1143229;-72
2022/01/11 06:45:09;;;;;;;373.10;123.47;;;;;;;-7.26;91.03;102690.71;4792189;61;1145680;-76
2022/01/11 06:50:16;;;;;;;373.53;118.00;;;;;;;-7.13;91.79;102691.53;4919437;59;1145160;-70
2022/01/11 06:55:22;;;;;;;314.27;100.63;;;;;;;-6.96;92.21;102704.47;4926619;59;1145227;-73
2022/01/11 07:00:28;;;;;;;237.25;79.42;;;;;;;-6.96;90.77;102716.04;4937590;58;1145452;-72
2022/01/11 07:05:36;;;;;;;210.77;73.00;;;;;;;-7.14;89.97;102724.08;4939803;59;1143130;-75
2022/01/11 07:10:42;;;;;;;230.23;75.07;;;;;;;-7.42;89.44;102727.92;4956007;59;1143171;-71
2022/01/11 07:15:49;;;;;;;215.07;79.33;;;;;;;-7.63;89.68;102732.38;5005059;58;1143114;-76
2022/01/11 07:20:55;;;;;;;221.83;75.83;;;;;;;-7.59;91.53;102724.83;5039831;58;1143191;-74
2022/01/11 07:26:02;;;;;;;411.97;141.50;;;;;;;-7.38;91.64;102734.91;4855154;60;1143257;-69
2022/01/11 07:31:09;;;;;;;280.73;86.20;;;;;;;-7.52;90.33;102747.33;4940920;59;1145495;-75
2022/01/11 07:36:17;;;;;;;226.45;69.50;;;;;;;-7.74;90.20;102744.87;4951232;59;1143284;-74
2022/01/11 07:41:25;;;;;;;215.53;69.47;;;;;;;-7.93;90.67;102738.67;4954794;59;1143133;-72
2022/01/11 07:46:42;;;;;;;199.90;72.40;;;;;;;-7.83;92.11;102746.75;4895386;60;1143168;-69
2022/01/11 07:51:49;;;;;;;263.33;87.13;;;;;;;-7.52;93.38;102747.33;4968569;58;1143177;-72
2022/01/11 07:56:55;;;;;;;301.70;95.20;;;;;;;-7.20;94.21;102738.47;4981066;58;1143315;-74
2022/01/11 08:02:03;;;;;;;303.20;98.37;;;;;;;-6.95;94.34;102743.92;4984406;58;1143261;-72
2022/01/11 08:07:11;;;;;;;368.80;120.80;;;;;;;-6.75;94.13;102751.41;4927853;59;1143493;-73
2022/01/11 08:12:18;;;;;;;450.10;146.73;;;;;;;-6.59;94.05;102751.84;4952691;59;1145456;-76
2022/01/11 08:17:24;;;;;;;490.20;155.10;;;;;;;-6.46;94.05;102761.23;4956630;59;1145229;-76
2022/01/11 08:22:30;;;;;;;481.10;152.47;;;;;;;-6.30;94.38;102757.79;4968738;58;1145471;-72
2022/01/11 08:27:36;;;;;;;266.37;89.07;;;;;;;-6.18;94.32;102766.71;4978556;59;1145708;-72
2022/01/11 08:32:42;;;;;;;228.22;77.67;;;;;;;-6.35;92.42;102773.10;4922087;59;1143355;-71
2022/01/11 08:37:49;;;;;;;263.20;90.47;;;;;;;-6.70;92.19;102775.08;4953688;59;1143258;-73
2022/01/11 08:42:55;;;;;;;389.27;125.27;;;;;;;-6.87;92.93;102785.75;4965796;59;1143125;-72
2022/01/11 08:48:02;;;;;;;319.43;111.17;;;;;;;-6.80;94.44;102788.98;4990024;59;1145290;-73
2022/01/11 08:53:09;;;;;;;264.20;98.20;;;;;;;-6.54;95.73;102790.14;4957172;59;1145232;-72
2022/01/11 08:58:16;;;;;;;261.97;95.37;;;;;;;-6.33;96.06;102796.31;4963141;59;1143089;-70
2022/01/11 09:03:23;;;;;;;256.80;85.33;;;;;;;-6.38;95.34;102797.47;4967058;59;1143257;-70
2022/01/11 09:08:29;;;;;;;600.97;183.77;;;;;;;-6.25;96.75;102812.42;4987477;58;1143148;-70
2022/01/11 09:13:37;;;;;;;268.47;86.60;;;;;;;-6.12;96.63;102819.69;4967043;58;1145240;-81
2022/01/11 09:18:44;;;;;;;225.03;84.53;;;;;;;-6.07;97.15;102825.81;4918549;59;1140829;-77
2022/01/11 09:23:51;;;;;;;214.33;78.20;;;;;;;-5.89;97.80;102821.58;4950498;59;1141155;-81
2022/01/11 09:28:59;;;;;;;236.00;82.10;;;;;;;-5.91;96.94;102823.66;4962991;59;1141120;-85
2022/01/11 09:34:06;;;;;;;241.20;86.60;;;;;;;-6.01;97.40;102817.81;4950241;59;1140570;-74
2022/01/11 09:39:12;;;;;;;198.87;74.97;;;;;;;-6.01;98.14;102816.52;4956491;59;1141109;-76
2022/01/11 09:44:20;;;;;;;178.53;64.60;;;;;;;-5.97;99.27;102819.64;4985815;58;1141055;-77
2022/01/11 09:49:26;;;;;;;165.70;62.67;;;;;;;-5.83;100.00;102826.87;4950068;59;1141087;-81
2022/01/11 09:54:32;;;;;;;198.23;74.87;;;;;;;-5.68;100.00;102815.67;4911470;60;1143322;-72
2022/01/11 09:59:39;;;;;;;254.03;96.07;;;;;;;-5.54;100.00;102816.02;4973773;59;1143181;-67
2022/01/11 10:05:02;;;;;;;217.83;84.57;;;;;;;-5.38;100.00;102809.53;4890436;60;1143334;-68
2022/01/11 10:10:20;;;;;;;216.23;80.33;;;;;;;-5.21;100.00;102803.50;4940181;59;1143116;-70
2022/01/11 10:15:41;;;;;;;212.20;75.07;;;;;;;-5.14;100.00;102810.52;4990110;59;1140968;-70
2022/01/11 10:20:51;;;;;;;213.40;76.87;;;;;;;-5.04;100.00;102820.25;4989718;59;1145204;-70
2022/01/11 10:25:59;;;;;;;214.50;76.33;;;;;;;-4.90;100.00;102814.11;4990123;59;1145543;-69
2022/01/11 10:31:05;;;;;;;173.97;62.80;;;;;;;-4.75;100.00;102807.99;4989988;59;1145282;-70
2022/01/11 10:36:13;;;;;;;173.93;61.87;;;;;;;-4.60;100.00;102807.03;4985476;58;1145213;-67
2022/01/11 10:41:46;;;;;;;198.97;74.50;;;;;;;-4.46;100.00;102799.56;4975358;58;1145198;-70
2022/01/11 10:46:53;;;;;;;157.37;57.40;;;;;;;-4.31;100.00;102790.84;4955299;59;1145211;-69
2022/01/11 10:52:27;;;;;;;174.23;62.40;;;;;;;-4.13;100.00;102800.24;4931022;59;1145463;-68
2022/01/11 10:57:43;;;;;;;145.13;50.37;;;;;;;-3.94;100.00;102784.62;4934843;59;1145206;-69
2022/01/11 11:02:59;;;;;;;132.53;52.90;;;;;;;-3.73;100.00;102789.33;4956627;59;1145282;-68
2022/01/11 11:08:21;;;;;;;155.90;51.23;;;;;;;-3.54;100.00;102786.22;4946783;59;1145345;-69
2022/01/11 11:13:41;;;;;;;132.83;49.47;;;;;;;-3.35;100.00;102783.05;4931295;59;1145238;-69
2022/01/11 11:18:57;;;;;;;122.50;47.20;;;;;;;-3.16;100.00;102778.17;4981388;59;1145217;-70
2022/01/11 11:24:08;;;;;;;105.87;41.90;;;;;;;-2.93;100.00;102774.21;4922408;59;1145203;-69
2022/01/11 11:29:17;;;;;;;99.97;37.07;;;;;;;-2.78;100.00;102778.73;4911901;60;1143327;-68
2022/01/11 11:34:24;;;;;;;115.37;44.73;;;;;;;-2.65;100.00;102784.09;4984997;59;1141128;-70
2022/01/11 11:39:30;;;;;;;88.33;33.77;;;;;;;-2.53;100.00;102786.83;4928208;59;1143454;-71
2022/01/11 11:44:43;;;;;;;104.87;45.77;;;;;;;-2.40;100.00;102786.55;4911679;60;1141329;-68
2022/01/11 11:49:53;;;;;;;91.87;37.48;;;;;;;-2.21;100.00;102774.67;4911721;60;1143401;-67
2022/01/11 11:55:29;;;;;;;103.83;41.23;;;;;;;-1.78;100.00;102772.09;4929654;59;1141284;-71
2022/01/11 12:00:39;;;;;;;88.83;40.27;;;;;;;-1.26;100.00;102767.33;4948446;59;1143154;-68
2022/01/11 12:05:47;;;;;;;76.07;30.20;;;;;;;-0.76;100.00;102771.08;4941373;58;1141500;-67
2022/01/11 12:10:57;;;;;;;77.10;33.17;;;;;;;-0.38;100.00;102765.20;4962090;59;1139042;-68
2022/01/11 12:16:03;;;;;;;68.67;31.03;;;;;;;-0.06;100.00;102764.86;4988014;58;1143087;-68
2022/01/11 12:21:10;;;;;;;71.90;31.80;;;;;;;0.21;100.00;102756.22;4956307;58;1143084;-70
2022/01/11 12:26:20;;;;;;;117.60;45.63;;;;;;;0.44;100.00;102761.89;4988671;59;1140968;-70
2022/01/11 12:31:35;;;;;;;86.77;36.70;;;;;;;0.76;100.00;102752.33;4953467;59;1143112;-70
2022/01/11 12:37:01;;;;;;;75.50;31.50;;;;;;;1.06;100.00;102759.20;4935143;59;1141239;-68
2022/01/11 12:42:12;;;;;;;80.87;37.67;;;;;;;1.26;98.30;102740.45;4915644;59;1141292;-68
2022/01/11 12:47:19;;;;;;;98.97;44.33;;;;;;;1.44;96.54;102748.64;4988677;59;1139183;-68
2022/01/11 12:52:26;;;;;;;101.17;47.10;;;;;;;1.56;96.45;102747.70;4993196;59;1139208;-68
2022/01/11 12:57:34;;;;;;;110.00;54.13;;;;;;;1.93;96.57;102754.91;4993093;59;1141176;-68
2022/01/11 13:02:41;;;;;;;77.70;36.37;;;;;;;2.29;97.82;102750.72;4970489;58;1141147;-69
2022/01/11 13:07:50;;;;;;;95.20;45.30;;;;;;;2.78;95.67;102747.25;4973213;57;1138968;-70
2022/01/11 13:13:12;;;;;;;121.47;57.07;;;;;;;2.80;93.71;102758.56;4975438;59;1138980;-71
2022/01/11 13:18:18;;;;;;;104.57;53.10;;;;;;;2.77;93.11;102749.88;4939126;59;1141138;-69
2022/01/11 13:23:47;;;;;;;97.87;48.03;;;;;;;2.92;92.65;102747.11;4961991;58;1141110;-68
2022/01/11 13:28:57;;;;;;;116.13;55.57;;;;;;;2.94;90.94;102751.89;4962728;59;1139143;-68
2022/01/11 13:34:13;;;;;;;135.33;66.27;;;;;;;2.82;90.29;102741.56;4950675;58;1141066;-70
2022/01/11 13:39:28;;;;;;;139.63;68.87;;;;;;;2.69;90.21;102742.13;4969244;58;1141092;-70
2022/01/11 13:44:37;;;;;;;126.93;62.60;;;;;;;2.64;90.58;102745.66;4995132;58;1141049;-69
2022/01/11 13:49:53;;;;;;;123.50;59.60;;;;;;;2.63;89.13;102750.01;4980440;58;1139066;-69
2022/01/11 13:54:59;;;;;;;134.70;63.80;;;;;;;1.88;88.49;102754.93;4954604;58;1139019;-69
2022/01/11 14:00:16;;;;;;;131.30;60.20;;;;;;;1.14;89.57;102757.88;4958191;58;1139019;-67
2022/01/11 14:05:22;;;;;;;145.30;64.40;;;;;;;0.67;90.97;102762.30;4950195;58;1138985;-71
2022/01/11 14:10:34;;;;;;;127.83;63.83;;;;;;;0.76;92.83;102757.53;4923320;58;1139304;-68
2022/01/11 14:15:37;;;;;;;141.83;65.33;;;;;;;0.92;92.54;102747.92;4917961;58;1138901;-67
2022/01/11 14:20:43;;;;;;;148.53;66.70;;;;;;;0.73;92.64;102748.41;4903401;59;1139036;-68
2022/01/11 14:25:55;;;;;;;151.63;66.10;;;;;;;0.52;92.48;102737.57;4930156;59;1139178;-67
2022/01/11 14:31:05;;;;;;;154.30;66.07;;;;;;;-0.06;93.34;102739.28;4947787;58;1138977;-71
2022/01/11 14:36:19;;;;;;;157.37;67.97;;;;;;;-0.06;93.34;102739.28;4965012;58;1141075;-70
2022/01/11 14:41:41;;;;;;;164.33;73.57;;;;;;;-0.24;93.57;102736.63;4967901;58;1138345;-69
2022/01/11 14:46:59;;;;;;;172.75;76.45;;;;;;;-0.40;94.05;102732.69;4963170;58;1143248;-68
2022/01/11 14:52:16;;;;;;;162.07;62.57;;;;;;;-0.58;94.32;102736.52;4924984;58;1143428;-69
2022/01/11 14:57:21;;;;;;;170.00;76.30;;;;;;;-0.76;94.54;102726.92;4967597;58;1143124;-67
2022/01/11 15:02:29;;;;;;;163.55;72.90;;;;;;;-0.92;94.79;102725.56;4906920;58;1143168;-68
2022/01/11 15:07:38;;;;;;;152.53;65.40;;;;;;;-0.94;95.46;102727.28;4923403;58;1143181;-71
2022/01/11 15:12:44;;;;;;;164.30;68.47;;;;;;;-1.06;95.09;102730.23;4958381;58;1143388;-69
2022/01/11 15:17:50;;;;;;;170.80;72.53;;;;;;;-1.13;95.78;102734.09;5041000;58;1143518;-68
2022/01/11 15:22:55;;;;;;;189.03;71.67;;;;;;;-1.14;96.12;102736.25;4967540;58;1143066;-72
2022/01/11 15:28:01;;;;;;;212.63;79.22;;;;;;;-1.13;96.02;102738.86;4910598;59;1143153;-71
2022/01/11 15:33:07;;;;;;;250.80;96.40;;;;;;;-1.32;95.31;102743.48;4960851;57;1143368;-67
2022/01/11 15:38:13;;;;;;;233.90;90.00;;;;;;;-1.35;95.93;102740.86;4968812;58;1143173;-71
2022/01/11 15:43:20;;;;;;;249.57;90.07;;;;;;;-1.38;96.05;102738.27;4902566;59;1143311;-70
2022/01/11 15:48:28;;;;;;;261.30;89.87;;;;;;;-1.35;96.68;102740.86;4890971;60;1143255;-70
2022/01/11 15:53:34;;;;;;;257.43;90.60;;;;;;;-1.33;96.78;102741.75;4928065;58;1143640;-67
2022/01/11 15:58:40;;;;;;;242.50;90.50;;;;;;;-1.34;96.56;102744.33;4906842;58;1143107;-70
2022/01/11 16:03:46;;;;;;;255.97;90.63;;;;;;;-1.37;96.57;102733.92;4927039;59;1143200;-69
2022/01/11 16:08:52;;;;;;;230.83;89.17;;;;;;;-1.44;95.67;102741.68;5070433;57;1143140;-68
2022/01/11 16:14:04;;;;;;;255.80;92.20;;;;;;;-1.61;95.09;102751.48;5078415;58;1143461;-69
2022/01/11 16:19:08;;;;;;;235.80;84.00;;;;;;;-1.82;94.56;102748.27;5003843;58;1143124;-67
2022/01/11 16:24:13;;;;;;;215.87;80.60;;;;;;;-2.10;94.12;102754.91;5033255;58;1143138;-68
2022/01/11 16:29:18;;;;;;;208.37;75.77;;;;;;;-2.23;95.08;102754.34;5025282;58;1143661;-67
2022/01/11 16:34:24;;;;;;;195.90;71.83;;;;;;;-2.41;94.51;102761.48;5032158;58;1143047;-68
2022/01/11 16:39:43;;;;;;;188.90;72.15;;;;;;;-2.57;94.73;102758.27;5044246;58;1143118;-68
2022/01/11 16:44:43;;;;;;;190.23;69.10;;;;;;;-2.52;96.12;102757.48;5035728;58;1143094;-69
2022/01/11 16:49:49;;;;;;;192.53;74.17;;;;;;;-2.40;96.62;102761.05;5040110;58;1143123;-71
2022/01/11 16:54:56;;;;;;;216.23;84.52;;;;;;;-2.38;96.46;102766.70;5052423;58;1143136;-70
2022/01/11 17:00:02;;;;;;;228.03;83.53;;;;;;;-2.43;95.30;102773.97;5049175;58;1143423;-69
2022/01/11 17:05:08;;;;;;;264.93;95.50;;;;;;;-2.62;94.50;102771.18;5063832;58;1143605;-69
2022/01/11 17:10:17;;;;;;;226.62;84.65;;;;;;;-2.77;94.42;102782.64;4978577;58;1143069;-68
2022/01/11 17:15:25;;;;;;;192.83;77.63;;;;;;;-2.77;95.62;102785.22;4963005;58;1141050;-68
2022/01/11 17:20:31;;;;;;;213.17;84.10;;;;;;;-2.70;95.87;102780.55;4952279;58;1141169;-67
2022/01/11 17:25:36;;;;;;;202.50;81.57;;;;;;;-2.68;95.62;102788.34;4937721;58;1141281;-69
2022/01/11 17:30:42;;;;;;;200.13;80.83;;;;;;;-2.72;95.33;102786.13;4951617;58;1141168;-70
2022/01/11 17:35:49;;;;;;;202.60;80.27;;;;;;;-2.69;95.31;102785.31;4928686;58;1141387;-68
2022/01/11 17:40:54;;;;;;;194.40;75.00;;;;;;;-2.74;94.87;102780.06;4915343;59;1141034;-70
2022/01/11 17:46:00;;;;;;;206.27;83.10;;;;;;;-2.85;94.34;102786.40;4919469;58;1141219;-71
2022/01/11 17:51:06;;;;;;;195.97;77.40;;;;;;;-2.91;94.47;102785.04;4890534;60;1141120;-69
2022/01/11 17:56:11;;;;;;;181.63;75.33;;;;;;;-3.03;93.82;102780.95;4890906;58;1141158;-71
2022/01/11 18:01:17;;;;;;;197.07;72.93;;;;;;;-3.09;94.10;102791.23;4890653;60;1141387;-77
2022/01/11 18:06:24;;;;;;;165.80;65.97;;;;;;;-3.21;93.31;102794.94;4896817;58;1141058;-77
2022/01/11 18:11:30;;;;;;;387.10;147.77;;;;;;;-3.33;93.51;102790.42;4930963;59;1141470;-74
2022/01/11 18:16:40;;;;;;;199.10;78.23;;;;;;;-3.42;93.17;102794.59;4912885;60;1143174;-82
2022/01/11 18:21:48;;;;;;;206.63;81.63;;;;;;;-3.52;93.39;102803.05;4959083;59;1140985;-74
2022/01/11 18:26:54;;;;;;;329.07;108.77;;;;;;;-3.61;93.46;102807.20;4954877;59;1141093;-74
2022/01/11 18:32:00;;;;;;;340.00;106.73;;;;;;;-3.67;93.59;102815.30;4951070;59;1143139;-76
2022/01/11 18:37:09;;;;;;;352.17;113.53;;;;;;;-3.68;93.52;102810.97;4954056;59;1143183;-74
2022/01/11 18:42:15;;;;;;;457.20;174.50;;;;;;;-3.86;92.75;102814.09;4946281;59;1141431;-71
2022/01/11 18:47:21;;;;;;;485.13;180.03;;;;;;;-3.99;92.77;102811.70;4928246;59;1145468;-76
2022/01/11 18:52:26;;;;;;;395.60;132.70;;;;;;;-4.08;92.51;102810.22;4960757;59;1145297;-79
2022/01/11 18:57:32;;;;;;;720.43;252.63;;;;;;;-4.20;92.15;102805.24;4952557;59;1145446;-69
2022/01/11 19:02:39;;;;;;;655.80;246.67;;;;;;;-4.26;92.62;102812.44;4962183;59;1145177;-73
2022/01/11 19:07:46;;;;;;;555.33;216.20;;;;;;;-4.46;91.78;102815.94;4923577;58;1145305;-74
2022/01/11 19:12:51;;;;;;;386.92;139.25;;;;;;;-4.68;91.49;102821.47;5124479;57;1145628;-81
2022/01/11 19:17:58;;;;;;;375.83;132.43;;;;;;;-4.79;91.98;102825.53;5039828;58;1145239;-75
2022/01/11 19:23:04;;;;;;;412.67;146.20;;;;;;;-4.73;93.09;102838.55;5039766;58;1145201;-73
2022/01/11 19:28:09;;;;;;;586.43;204.03;;;;;;;-4.59;93.84;102841.05;5045108;58;1145369;-70
2022/01/11 19:33:15;;;;;;;514.83;177.37;;;;;;;-4.49;93.74;102844.69;5053222;58;1145119;-73
2022/01/11 19:38:21;;;;;;;623.03;211.80;;;;;;;-4.40;93.81;102847.03;5043945;58;1145450;-78
2022/01/11 19:43:27;;;;;;;565.53;188.80;;;;;;;-4.27;94.22;102850.32;5041274;58;1145825;-71
2022/01/11 19:48:33;;;;;;;532.50;182.33;;;;;;;-4.25;93.23;102855.52;4892874;59;1145385;-74
2022/01/11 19:53:39;;;;;;;526.87;177.83;;;;;;;-4.32;92.86;102856.25;5054835;58;1145238;-73
2022/01/11 19:58:45;;;;;;;599.27;203.37;;;;;;;-4.31;93.24;102851.53;4891970;59;1145639;-78
2022/01/11 20:03:51;;;;;;;1076.83;391.20;;;;;;;-4.26;93.49;102854.64;5010007;58;1145379;-80
2022/01/11 20:08:56;;;;;;;771.30;303.58;;;;;;;-4.30;92.34;102855.87;5021465;57;1147590;-80
2022/01/11 20:14:03;;;;;;;603.87;225.60;;;;;;;-4.53;91.14;102853.20;5162491;57;1145780;-81
2022/01/11 20:19:10;;;;;;;553.30;194.13;;;;;;;-4.70;91.22;102856.28;5161517;57;1145234;-83
2022/01/11 20:29:47;;;;;;;478.53;174.80;;;;;;;-4.71;92.04;102854.95;5170300;57;1145106;-76
2022/01/11 20:34:53;;;;;;;443.07;151.50;;;;;;;-4.76;92.10;102851.42;5091346;57;1145244;-76
2022/01/11 20:40:00;;;;;;;513.20;183.10;;;;;;;-4.85;91.57;102834.41;5066087;58;1145553;-82
2022/01/11 20:45:09;;;;;;;574.83;212.00;;;;;;;-4.89;91.74;102851.98;5050704;58;1145290;-78
2022/01/11 20:55:27;;;;;;;622.80;237.83;;;;;;;-5.33;90.34;102851.34;5030956;58;1145223;-78
2022/01/11 21:00:32;;;;;;;664.90;247.27;;;;;;;-5.25;91.96;102855.84;5048915;58;1145470;-74
2022/01/11 21:05:40;;;;;;;669.77;234.87;;;;;;;-5.11;92.39;102858.33;4880047;60;1145227;-72
2022/01/11 21:10:46;;;;;;;632.43;224.63;;;;;;;-5.01;92.44;102857.70;5047374;57;1145246;-73
2022/01/11 21:20:59;;;;;;;383.70;121.90;;;;;;;-5.06;91.30;102858.03;4865633;60;1145366;-76
2022/01/11 21:26:07;;;;;;;268.43;93.50;;;;;;;-5.08;91.32;102860.57;5044381;58;1145519;-80
2022/01/11 21:31:13;;;;;;;268.80;89.40;;;;;;;-5.06;91.51;102864.06;5030689;58;1141011;-73
2022/01/11 21:36:18;;;;;;;199.17;69.40;;;;;;;-5.15;90.31;102857.37;5037780;58;1141034;-71
2022/01/11 21:41:24;;;;;;;294.27;98.70;;;;;;;-5.39;89.41;102855.08;5048368;58;1141151;-73
2022/01/11 21:46:30;;;;;;;462.80;153.77;;;;;;;-5.48;89.93;102851.38;5038301;58;1141109;-73
2022/01/11 21:51:37;;;;;;;314.90;102.20;;;;;;;-5.57;90.32;102855.89;4997588;58;1143406;-77
2022/01/11 21:56:43;;;;;;;362.90;116.60;;;;;;;-5.60;90.11;102860.96;4996924;58;1143643;-72
2022/01/11 22:01:48;;;;;;;416.87;130.60;;;;;;;-5.79;89.28;102862.17;5033674;57;1143475;-72
2022/01/11 22:06:54;;;;;;;432.00;145.10;;;;;;;-6.00;88.93;102862.06;5074914;58;1143156;-74
2022/01/11 22:12:02;;;;;;;423.67;135.17;;;;;;;-6.04;90.50;102867.53;5025846;58;1143321;-73
2022/01/11 22:22:29;;;;;;;369.67;119.60;;;;;;;-6.01;89.90;102862.89;5003937;59;1143208;-73
2022/01/11 22:27:36;;;;;;;210.53;75.73;;;;;;;-5.97;90.52;102857.88;5004221;59;1143306;-77
2022/01/11 22:32:41;;;;;;;357.23;104.97;;;;;;;-6.02;89.84;102850.42;5004491;59;1141241;-77
2022/01/11 22:37:47;;;;;;;405.63;126.07;;;;;;;-6.04;89.72;102845.22;5004343;59;1143373;-78
2022/01/11 22:42:53;;;;;;;369.33;112.33;;;;;;;-6.14;89.44;102844.94;5003872;59;1143425;-76
2022/01/11 22:47:59;;;;;;;555.03;177.90;;;;;;;-6.16;89.92;102839.74;5004564;59;1141384;-71
2022/01/11 22:53:05;;;;;;;473.05;154.30;;;;;;;-6.06;90.35;102834.41;5004569;59;1140979;-74